Time;durP1;ratioP1;P1;durP2;ratioP2;P2;SDS_P1;SDS_P2;PMS_P1;PMS_P2;Temp;Humidity;BMP_temperature;BMP_pressure;BME280_temperature;BME280_humidity;BME280_pressure;Samples;Min_cycle;Max_cycle;Signal;HPM_P1;HPM_P2
2022/07/02 00:01:37;;;;;;;4.25;1.20;;;14.80;99.90;;;;;;5079977;28;20550;-75
2022/07/02 00:04:05;;;;;;;3.85;1.17;;;14.80;99.90;;;;;;5069004;28;20036;-76
2022/07/02 00:06:32;;;;;;;3.10;0.93;;;14.80;99.90;;;;;;5087351;28;20067;-76
2022/07/02 00:09:00;;;;;;;3.05;0.93;;;14.80;99.90;;;;;;5050345;28;20054;-76
2022/07/02 00:11:26;;;;;;;3.40;1.25;;;14.90;99.90;;;;;;5053201;28;20075;-76
2022/07/02 00:13:56;;;;;;;4.22;1.50;;;14.70;99.90;;;;;;5080580;28;20044;-76
2022/07/02 00:16:22;;;;;;;4.05;1.10;;;14.70;99.90;;;;;;5069289;28;20040;-75
2022/07/02 00:18:48;;;;;;;2.30;1.08;;;14.60;99.90;;;;;;5060837;28;20080;-75
2022/07/02 00:21:14;;;;;;;6.80;1.60;;;14.70;99.90;;;;;;5069558;28;20150;-76
2022/07/02 00:23:39;;;;;;;2.85;1.15;;;14.70;99.90;;;;;;5100596;28;20140;-76
2022/07/02 00:26:16;;;;;;;3.03;0.88;;;14.70;99.90;;;;;;5065043;28;20048;-76
2022/07/02 00:28:45;;;;;;;3.00;1.00;;;14.70;99.90;;;;;;5068701;28;20055;-76
2022/07/02 00:31:11;;;;;;;2.92;1.08;;;14.60;99.90;;;;;;5048852;28;20075;-76
2022/07/02 00:33:37;;;;;;;2.58;0.95;;;14.60;99.90;;;;;;5069388;28;20105;-76
2022/07/02 00:36:04;;;;;;;2.65;1.20;;;14.50;99.90;;;;;;5047028;28;20040;-76
2022/07/02 00:38:30;;;;;;;4.63;1.48;;;14.50;99.90;;;;;;5066725;28;20032;-76
2022/07/02 00:40:57;;;;;;;5.07;1.27;;;14.50;99.90;;;;;;5068798;28;20050;-75
2022/07/02 00:43:23;;;;;;;5.40;1.10;;;14.50;99.90;;;;;;5060619;28;20144;-76
2022/07/02 00:45:51;;;;;;;4.00;1.58;;;14.40;99.90;;;;;;5085623;28;20036;-75
2022/07/02 00:48:16;;;;;;;3.80;1.33;;;14.40;99.90;;;;;;5087838;28;20118;-75
2022/07/02 00:50:42;;;;;;;2.33;1.40;;;14.40;99.90;;;;;;5051864;28;20123;-75
2022/07/02 00:53:08;;;;;;;2.65;1.15;;;14.30;99.90;;;;;;5030738;28;20052;-75
2022/07/02 00:55:33;;;;;;;3.95;1.30;;;15.60;99.90;;;;;;5087708;28;20036;-76
2022/07/02 00:57:59;;;;;;;4.80;1.63;;;14.80;99.90;;;;;;5068474;28;20487;-75
2022/07/02 01:00:25;;;;;;;4.20;1.58;;;14.30;99.90;;;;;;5069224;28;20040;-76
2022/07/02 01:02:56;;;;;;;4.40;1.40;;;14.30;99.90;;;;;;5069082;28;20243;-76
2022/07/02 01:05:22;;;;;;;5.30;1.67;;;14.30;99.90;;;;;;5047268;28;20032;-76
2022/07/02 01:10:52;;;;;;;5.72;2.05;;;14.20;99.90;;;;;;5069086;28;20048;-76
2022/07/02 01:13:18;;;;;;;7.78;2.03;;;14.20;99.90;;;;;;5070327;28;20744;-76
2022/07/02 01:15:44;;;;;;;2.05;1.50;;;14.20;99.90;;;;;;5049270;28;20040;-75
2022/07/02 01:18:13;;;;;;;4.90;2.10;;;14.20;99.90;;;;;;5072268;28;20536;-75
2022/07/02 01:20:38;;;;;;;3.35;1.50;;;15.30;99.90;;;;;;5072644;28;20036;-76
2022/07/02 01:23:10;;;;;;;5.97;2.30;;;14.20;99.90;;;;;;5091108;28;20055;-75
2022/07/02 01:25:36;;;;;;;5.03;1.75;;;14.10;99.90;;;;;;5071193;28;20036;-75
2022/07/02 01:28:02;;;;;;;3.72;1.23;;;15.50;99.90;;;;;;5054494;28;20055;-76
2022/07/02 01:30:27;;;;;;;7.25;1.95;;;14.10;99.90;;;;;;5056327;28;20062;-76
2022/07/02 01:32:56;;;;;;;3.85;1.77;;;14.10;99.90;;;;;;5053371;28;20048;-75
2022/07/02 01:35:22;;;;;;;5.20;2.28;;;14.00;99.90;;;;;;5056072;28;20048;-76
2022/07/02 01:37:49;;;;;;;4.40;1.60;;;14.10;99.90;;;;;;5052885;28;20048;-76
2022/07/02 01:40:15;;;;;;;10.65;2.00;;;14.60;99.90;;;;;;5088918;28;20046;-76
2022/07/02 01:42:42;;;;;;;4.40;1.67;;;14.00;99.90;;;;;;5065570;28;20048;-76
2022/07/02 01:45:08;;;;;;;5.78;2.00;;;14.00;99.90;;;;;;5055531;28;20047;-76
2022/07/02 01:47:34;;;;;;;5.57;2.17;;;14.00;99.90;;;;;;5054458;28;20067;-76
2022/07/02 01:49:59;;;;;;;5.18;2.00;;;15.30;99.90;;;;;;5070574;28;20067;-76
2022/07/02 01:52:26;;;;;;;4.70;1.77;;;14.00;99.90;;;;;;5072484;28;20078;-76
2022/07/02 01:54:52;;;;;;;4.70;2.08;;;14.00;99.90;;;;;;5065063;28;20090;-77
2022/07/02 01:57:18;;;;;;;6.10;2.03;;;14.30;99.90;;;;;;5072179;28;20113;-76
2022/07/02 01:59:44;;;;;;;7.03;2.42;;;15.10;99.90;;;;;;5065009;28;20479;-76
2022/07/02 02:02:09;;;;;;;6.40;2.40;;;15.10;99.90;;;;;;5054905;28;20071;-76
2022/07/02 02:04:35;;;;;;;4.32;1.70;;;15.50;99.90;;;;;;5089760;28;20101;-76
2022/07/02 02:07:02;;;;;;;7.00;1.80;;;14.70;99.90;;;;;;5085682;28;20039;-75
2022/07/02 02:09:28;;;;;;;6.30;2.53;;;14.80;99.90;;;;;;5071565;28;20539;-76
2022/07/02 02:11:54;;;;;;;5.40;2.35;;;13.90;99.90;;;;;;5065804;28;20033;-76
2022/07/02 02:14:19;;;;;;;6.00;2.28;;;15.00;99.90;;;;;;5054662;28;20056;-75
2022/07/02 02:16:45;;;;;;;8.38;2.00;;;13.90;99.90;;;;;;5064755;28;20040;-76
2022/07/02 02:19:13;;;;;;;3.92;1.60;;;15.10;99.90;;;;;;5054883;28;20047;-75
2022/07/02 02:21:39;;;;;;;5.13;1.88;;;14.00;99.90;;;;;;5047822;28;20040;-76
2022/07/02 02:24:05;;;;;;;8.18;2.00;;;14.00;99.90;;;;;;5070900;28;20580;-76
2022/07/02 02:26:31;;;;;;;6.57;2.10;;;13.80;99.90;;;;;;5053885;28;20047;-75
2022/07/02 02:28:56;;;;;;;6.47;1.90;;;13.80;99.90;;;;;;5070227;28;20112;-75
2022/07/02 02:31:23;;;;;;;6.15;1.95;;;13.80;99.90;;;;;;5068144;28;20040;-75
2022/07/02 02:33:49;;;;;;;4.50;1.73;;;13.80;99.90;;;;;;5070756;28;20126;-75
2022/07/02 02:36:15;;;;;;;2.53;1.65;;;13.80;99.90;;;;;;5070384;28;20348;-76
2022/07/02 02:38:40;;;;;;;4.53;1.67;;;13.80;99.90;;;;;;5070705;28;20446;-75
2022/07/02 02:41:07;;;;;;;2.60;1.52;;;14.30;99.90;;;;;;5071138;28;20122;-76
2022/07/02 02:43:34;;;;;;;4.55;2.03;;;13.80;99.90;;;;;;5051191;28;20058;-75
2022/07/02 02:46:01;;;;;;;5.50;1.77;;;13.80;99.90;;;;;;5070669;28;20044;-75
2022/07/02 02:48:27;;;;;;;2.25;1.10;;;14.00;99.90;;;;;;5071061;28;20565;-76
2022/07/02 02:50:53;;;;;;;2.75;1.60;;;14.80;99.90;;;;;;5069906;28;20443;-76
2022/07/02 02:53:19;;;;;;;3.10;1.65;;;13.80;99.90;;;;;;5049850;28;20128;-75
2022/07/02 02:55:44;;;;;;;5.28;2.30;;;13.80;99.90;;;;;;5088615;28;20072;-76
2022/07/02 02:58:10;;;;;;;2.38;1.67;;;14.80;99.90;;;;;;5070532;28;20051;-76
2022/07/02 03:00:36;;;;;;;2.97;1.70;;;13.70;99.90;;;;;;5088535;28;20498;-76
2022/07/02 03:03:04;;;;;;;3.50;1.67;;;13.70;99.90;;;;;;5070497;28;20544;-76
2022/07/02 03:05:30;;;;;;;5.93;2.05;;;13.70;99.90;;;;;;5088126;28;20050;-76
2022/07/02 03:07:56;;;;;;;8.02;4.35;;;13.40;99.90;;;;;;5053712;28;20101;-75
2022/07/02 03:10:21;;;;;;;10.15;5.65;;;14.60;99.90;;;;;;5066118;28;20044;-76
2022/07/02 03:12:47;;;;;;;6.35;2.15;;;13.60;99.90;;;;;;5070020;28;20071;-76
2022/07/02 03:15:13;;;;;;;7.07;2.05;;;13.60;99.90;;;;;;5048926;28;20063;-76
2022/07/02 03:17:39;;;;;;;2.78;1.85;;;12.90;99.90;;;;;;5084512;28;20043;-76
2022/07/02 03:20:05;;;;;;;8.27;2.00;;;14.80;99.90;;;;;;5066688;28;20040;-76
2022/07/02 03:22:31;;;;;;;4.68;1.50;;;13.60;99.90;;;;;;5087151;28;20043;-75
2022/07/02 03:24:57;;;;;;;7.68;1.73;;;13.60;99.90;;;;;;5052196;28;20040;-75
2022/07/02 03:27:24;;;;;;;5.72;1.90;;;14.70;99.90;;;;;;5070318;28;20407;-75
2022/07/02 03:29:50;;;;;;;3.53;1.98;;;14.80;99.90;;;;;;5053323;28;20111;-76
2022/07/02 03:32:17;;;;;;;5.07;1.40;;;13.60;99.90;;;;;;5070082;28;20036;-76
2022/07/02 03:34:42;;;;;;;4.60;2.05;;;15.10;99.90;;;;;;5070091;28;20047;-75
2022/07/02 03:37:08;;;;;;;5.35;2.08;;;14.40;99.90;;;;;;5070541;28;20036;-76
2022/07/02 03:39:34;;;;;;;4.03;2.40;;;14.80;99.90;;;;;;5045121;28;20036;-76
2022/07/02 03:42:00;;;;;;;40.72;29.13;;;14.30;99.90;;;;;;5053714;28;20051;-75
2022/07/02 03:44:26;;;;;;;6.88;3.72;;;14.30;99.90;;;;;;5053998;28;20043;-75
2022/07/02 03:46:53;;;;;;;6.50;3.22;;;13.70;99.90;;;;;;5087322;28;20044;-76
2022/07/02 03:49:18;;;;;;;5.22;2.45;;;14.60;99.90;;;;;;5070552;28;20040;-76
2022/07/02 03:51:44;;;;;;;4.60;1.63;;;13.60;99.90;;;;;;5048282;28;20093;-75
2022/07/02 03:54:10;;;;;;;4.82;1.55;;;13.70;99.90;;;;;;5086133;28;20109;-76
2022/07/02 03:56:35;;;;;;;4.57;2.20;;;13.60;99.90;;;;;;5064935;28;20495;-76
2022/07/02 03:59:04;;;;;;;6.78;2.25;;;13.40;99.90;;;;;;5066749;28;21377;-76
2022/07/02 04:01:30;;;;;;;5.15;2.05;;;13.50;99.90;;;;;;5053095;28;20040;-77
2022/07/02 04:03:55;;;;;;;6.97;2.30;;;13.50;99.90;;;;;;5084134;28;20437;-74
2022/07/02 04:06:24;;;;;;;8.35;2.42;;;14.00;99.90;;;;;;5053189;28;20051;-75
2022/07/02 04:08:50;;;;;;;4.93;2.10;;;13.50;99.90;;;;;;5064634;28;20048;-75
2022/07/02 04:11:16;;;;;;;3.63;2.20;;;13.00;99.90;;;;;;5068090;28;20384;-76
2022/07/02 04:13:41;;;;;;;6.28;2.15;;;13.50;99.90;;;;;;5047175;28;20058;-75
2022/07/02 04:16:09;;;;;;;7.63;2.42;;;13.50;99.90;;;;;;5085768;28;20040;-76
2022/07/02 04:18:35;;;;;;;5.60;2.17;;;13.50;99.90;;;;;;5070339;28;20047;-76
2022/07/02 04:21:01;;;;;;;6.45;2.45;;;14.40;99.90;;;;;;5048926;28;20044;-76
2022/07/02 04:23:26;;;;;;;7.10;2.20;;;13.50;99.90;;;;;;5052309;28;20077;-76
2022/07/02 04:25:52;;;;;;;7.47;2.28;;;13.50;99.90;;;;;;5069192;28;20076;-76
2022/07/02 04:28:18;;;;;;;11.40;3.00;;;13.60;99.90;;;;;;5087524;28;20044;-76
2022/07/02 04:30:43;;;;;;;6.85;3.08;;;13.50;99.90;;;;;;5069159;28;20044;-76
2022/07/02 04:33:09;;;;;;;11.18;2.58;;;14.70;99.90;;;;;;5082117;28;20126;-75
2022/07/02 04:35:34;;;;;;;6.47;2.42;;;13.50;99.90;;;;;;5050720;28;20048;-77
2022/07/02 04:38:00;;;;;;;5.60;2.30;;;14.80;99.90;;;;;;5082690;28;20360;-77
2022/07/02 04:40:28;;;;;;;6.55;2.70;;;13.60;99.90;;;;;;5085418;28;20123;-76
2022/07/02 04:42:54;;;;;;;6.82;3.15;;;13.60;99.90;;;;;;5068399;28;20126;-77
2022/07/02 04:45:19;;;;;;;7.22;2.95;;;13.60;99.90;;;;;;5066541;28;20755;-77
2022/07/02 04:47:45;;;;;;;7.35;3.30;;;14.20;99.90;;;;;;5068894;28;20072;-76
2022/07/02 04:50:11;;;;;;;7.65;3.78;;;13.60;99.90;;;;;;5068898;28;20043;-75
2022/07/02 04:52:36;;;;;;;9.90;4.18;;;13.60;99.90;;;;;;5089823;28;20127;-76
2022/07/02 04:55:02;;;;;;;9.32;4.13;;;14.30;99.90;;;;;;5067688;28;20071;-76
2022/07/02 04:57:28;;;;;;;6.68;3.78;;;13.70;99.90;;;;;;5088511;28;20083;-76
2022/07/02 04:59:53;;;;;;;5.53;4.07;;;13.70;99.90;;;;;;5072472;28;20456;-76
2022/07/02 05:02:19;;;;;;;10.30;4.50;;;13.90;99.90;;;;;;5053725;28;20036;-77
2022/07/02 05:04:45;;;;;;;7.93;4.45;;;13.70;99.90;;;;;;5071033;28;20085;-76
2022/07/02 05:07:10;;;;;;;9.38;4.40;;;14.30;99.90;;;;;;5052483;28;20052;-77
2022/07/02 05:09:39;;;;;;;8.57;4.57;;;13.70;99.90;;;;;;5089613;28;20036;-75
2022/07/02 05:12:08;;;;;;;8.07;4.55;;;13.80;99.90;;;;;;5090364;28;20123;-77
2022/07/02 05:14:38;;;;;;;6.25;4.97;;;13.90;99.90;;;;;;5052771;28;21028;-77
2022/07/02 05:17:04;;;;;;;8.10;4.93;;;13.90;99.90;;;;;;5055139;28;20561;-77
2022/07/02 05:19:30;;;;;;;7.47;6.57;;;14.00;99.90;;;;;;5073415;28;20032;-77
2022/07/02 05:22:01;;;;;;;10.80;5.43;;;14.00;99.90;;;;;;5072933;28;20562;-76
2022/07/02 05:24:27;;;;;;;8.07;4.93;;;14.00;99.90;;;;;;5068970;28;20450;-77
2022/07/02 05:26:53;;;;;;;10.20;5.35;;;14.10;99.90;;;;;;5061324;28;20095;-76
2022/07/02 05:29:19;;;;;;;6.32;4.93;;;14.10;99.90;;;;;;5051294;28;20052;-77
2022/07/02 05:31:45;;;;;;;5.95;4.85;;;15.40;99.90;;;;;;5031835;28;20070;-76
2022/07/02 05:34:11;;;;;;;8.25;4.63;;;14.20;99.90;;;;;;5050887;28;20041;-77
2022/07/02 05:36:36;;;;;;;9.57;4.72;;;15.60;99.90;;;;;;5049252;28;20049;-76
2022/07/02 05:39:05;;;;;;;7.63;5.18;;;14.20;99.90;;;;;;5065360;28;20033;-76
2022/07/02 05:41:30;;;;;;;7.63;4.35;;;14.30;99.90;;;;;;5049559;28;20124;-76
2022/07/02 05:43:59;;;;;;;8.85;4.55;;;14.70;99.90;;;;;;5049252;28;20145;-76
2022/07/02 05:46:25;;;;;;;7.53;4.53;;;14.40;99.90;;;;;;5049847;28;20116;-75
2022/07/02 05:48:51;;;;;;;6.40;4.32;;;14.50;99.90;;;;;;5031835;28;20136;-76
2022/07/02 05:51:16;;;;;;;9.25;4.32;;;14.50;99.90;;;;;;5032704;28;20048;-76
2022/07/02 05:53:45;;;;;;;8.98;4.63;;;14.60;99.90;;;;;;5049051;28;20037;-78
2022/07/02 05:56:32;;;;;;;4.93;3.83;;;14.50;99.90;;;;;;5048542;28;20049;-78
2022/07/02 05:58:58;;;;;;;8.05;4.15;;;16.00;99.90;;;;;;5047824;28;20132;-77
2022/07/02 06:01:23;;;;;;;11.32;4.05;;;14.70;99.90;;;;;;5049663;28;20120;-76
2022/07/02 06:03:49;;;;;;;6.80;4.68;;;16.30;99.90;;;;;;5031876;28;20029;-77
2022/07/02 06:08:59;;;;;;;7.88;3.90;;;15.70;99.90;;;;;;5046164;28;20056;-76
2022/07/02 06:11:29;;;;;;;9.05;3.45;;;15.70;99.90;;;;;;5049306;28;20419;-75
2022/07/02 06:13:57;;;;;;;8.32;3.70;;;14.90;99.90;;;;;;5030942;28;20041;-77
2022/07/02 06:16:50;;;;;;;5.68;2.97;;;15.50;99.90;;;;;;5048515;28;20044;-80
2022/07/02 06:19:15;;;;;;;10.10;3.40;;;15.40;99.90;;;;;;5036784;28;20095;-77
2022/07/02 06:21:41;;;;;;;8.60;2.97;;;15.70;99.90;;;;;;5030769;28;20037;-76
2022/07/02 06:24:10;;;;;;;8.93;3.47;;;16.20;99.90;;;;;;5031956;28;20103;-76
2022/07/02 06:26:36;;;;;;;4.85;3.38;;;16.60;99.90;;;;;;5031536;28;20128;-77
2022/07/02 06:29:08;;;;;;;12.00;3.30;;;15.30;99.90;;;;;;5048024;28;20049;-76
2022/07/02 06:31:34;;;;;;;5.47;3.15;;;14.60;99.90;;;;;;5016005;28;20060;-76
2022/07/02 06:34:08;;;;;;;6.80;3.10;;;15.40;99.90;;;;;;5047617;28;20044;-77
2022/07/02 06:36:37;;;;;;;8.32;3.55;;;15.40;99.90;;;;;;5031199;28;20041;-76
2022/07/02 06:39:03;;;;;;;6.32;2.72;;;15.40;99.90;;;;;;5030826;28;20076;-76
2022/07/02 06:44:13;;;;;;;6.97;2.75;;;15.60;99.90;;;;;;5047848;28;20441;-76
2022/07/02 06:46:42;;;;;;;12.07;3.53;;;16.50;99.90;;;;;;5031649;28;20047;-77
2022/07/02 06:49:26;;;;;;;5.35;3.40;;;16.90;99.90;;;;;;5047355;28;20037;-78
2022/07/02 06:51:52;;;;;;;8.90;3.03;;;15.70;99.90;;;;;;5047927;28;20560;-75
2022/07/02 06:54:17;;;;;;;6.78;2.55;;;15.80;99.90;;;;;;5048028;28;20128;-77
2022/07/02 06:56:43;;;;;;;11.00;3.03;;;16.30;99.90;;;;;;5030263;28;20041;-75
2022/07/02 06:59:09;;;;;;;4.45;2.30;;;15.90;99.90;;;;;;5048876;28;20037;-75
2022/07/02 07:01:36;;;;;;;7.57;2.60;;;16.30;99.90;;;;;;5042745;28;20528;-76
2022/07/02 07:04:01;;;;;;;8.77;2.53;;;16.00;99.90;;;;;;5046835;28;20049;-76
2022/07/02 07:06:33;;;;;;;6.45;2.40;;;16.00;99.90;;;;;;5030830;28;20140;-77
2022/07/02 07:08:59;;;;;;;10.05;2.95;;;17.00;99.90;;;;;;5047149;28;20041;-76
2022/07/02 07:11:27;;;;;;;8.80;2.35;;;16.80;99.90;;;;;;5046870;28;20109;-76
2022/07/02 07:13:56;;;;;;;5.18;2.47;;;16.80;99.90;;;;;;5030776;28;20057;-76
2022/07/02 07:16:22;;;;;;;6.05;1.58;;;16.40;99.90;;;;;;5047181;28;20075;-77
2022/07/02 07:18:54;;;;;;;5.97;2.10;;;16.20;99.90;;;;;;5046741;28;20045;-77
2022/07/02 07:21:19;;;;;;;4.85;2.42;;;16.30;99.90;;;;;;5031153;28;20037;-77
2022/07/02 07:23:45;;;;;;;4.90;2.42;;;16.30;99.90;;;;;;5046178;28;20467;-76
2022/07/02 07:26:14;;;;;;;5.85;2.42;;;16.30;99.90;;;;;;5034364;28;20095;-76
2022/07/02 07:28:40;;;;;;;5.88;2.50;;;16.40;99.90;;;;;;5070086;28;20488;-76
2022/07/02 07:31:05;;;;;;;5.05;2.17;;;15.90;99.90;;;;;;5086771;28;20043;-76
2022/07/02 07:33:31;;;;;;;5.18;3.28;;;16.50;99.90;;;;;;5088629;28;20039;-76
2022/07/02 07:35:57;;;;;;;5.00;1.70;;;16.40;99.90;;;;;;5069528;28;20126;-76
2022/07/02 07:38:23;;;;;;;6.38;2.10;;;16.60;99.90;;;;;;5054079;28;20044;-76
2022/07/02 07:40:49;;;;;;;7.07;1.90;;;16.70;99.90;;;;;;5070249;28;20040;-76
2022/07/02 07:43:15;;;;;;;4.97;1.60;;;17.80;99.90;;;;;;5052924;28;20043;-76
2022/07/02 07:45:40;;;;;;;5.80;1.60;;;16.80;99.90;;;;;;5069838;28;20423;-74
2022/07/02 07:48:06;;;;;;;3.25;1.00;;;17.00;99.90;;;;;;5053850;28;20035;-75
2022/07/02 07:50:32;;;;;;;6.50;1.30;;;16.90;99.90;;;;;;5053148;28;20036;-76
2022/07/02 07:52:58;;;;;;;4.82;1.20;;;17.10;99.90;;;;;;5043653;28;20048;-75
2022/07/02 07:55:23;;;;;;;4.97;1.90;;;17.00;99.90;;;;;;5069462;28;20126;-75
2022/07/02 07:57:49;;;;;;;7.55;1.67;;;17.20;99.90;;;;;;5069196;28;20028;-75
2022/07/02 08:00:15;;;;;;;5.15;1.60;;;18.10;99.90;;;;;;5070421;28;20044;-76
2022/07/02 08:02:43;;;;;;;3.95;1.02;;;17.10;99.90;;;;;;5070001;28;20040;-77
2022/07/02 08:05:09;;;;;;;2.15;1.00;;;18.40;99.90;;;;;;5069552;28;20051;-76
2022/07/02 08:07:39;;;;;;;4.30;1.38;;;17.20;99.90;;;;;;5070528;28;20046;-76
2022/07/02 08:10:06;;;;;;;7.18;1.63;;;17.30;99.90;;;;;;5070122;28;20503;-77
2022/07/02 08:12:32;;;;;;;4.90;1.73;;;17.30;99.90;;;;;;5052528;28;20467;-76
2022/07/02 08:14:59;;;;;;;3.28;1.67;;;17.60;99.90;;;;;;5029650;28;20102;-76
2022/07/02 08:17:26;;;;;;;5.40;1.35;;;17.40;99.90;;;;;;5087093;28;20047;-76
2022/07/02 08:19:51;;;;;;;4.95;1.88;;;17.40;99.90;;;;;;5069544;28;20109;-77
2022/07/02 08:22:19;;;;;;;4.30;1.30;;;17.70;99.90;;;;;;5070278;28;20449;-75
2022/07/02 08:24:45;;;;;;;3.28;1.30;;;18.40;99.90;;;;;;5073073;28;20036;-75
2022/07/02 08:27:11;;;;;;;3.90;1.50;;;17.60;99.90;;;;;;5056830;28;20063;-76
2022/07/02 08:29:37;;;;;;;5.65;1.10;;;17.70;99.90;;;;;;5048710;28;20048;-78
2022/07/02 08:32:21;;;;;;;8.63;1.67;;;17.70;99.90;;;;;;5057207;28;20083;-79
2022/07/02 08:34:47;;;;;;;5.78;1.02;;;17.80;99.90;;;;;;5055643;28;20446;-76
2022/07/02 08:37:14;;;;;;;4.10;1.25;;;18.30;99.90;;;;;;5074042;28;20039;-77
2022/07/02 08:39:39;;;;;;;4.85;1.13;;;17.90;99.90;;;;;;5069700;28;20368;-77
2022/07/02 08:42:06;;;;;;;3.33;1.10;;;18.00;99.90;;;;;;5072922;28;20112;-76
2022/07/02 08:44:32;;;;;;;3.85;0.85;;;18.00;99.90;;;;;;5073637;28;20403;-76
2022/07/02 08:47:07;;;;;;;2.40;0.73;;;18.10;99.90;;;;;;5072620;28;20040;-76
2022/07/02 08:49:33;;;;;;;;;;;18.20;99.90;;;;;;5092806;28;20032;-76
2022/07/02 08:52:04;;;;;;;3.47;0.75;;;18.30;99.90;;;;;;5069691;28;19973;-75
2022/07/02 08:54:34;;;;;;;1.70;0.73;;;18.30;99.90;;;;;;5054758;28;20082;-76
2022/07/02 08:57:08;;;;;;;3.00;0.85;;;18.30;99.90;;;;;;5068571;28;20047;-76
2022/07/02 08:59:33;;;;;;;3.88;0.82;;;19.20;99.90;;;;;;5054248;28;20040;-76
2022/07/02 09:02:00;;;;;;;2.58;0.88;;;18.40;99.90;;;;;;5069590;28;20039;-76
2022/07/02 09:04:26;;;;;;;9.95;1.42;;;18.40;99.90;;;;;;5056134;28;20032;-75
2022/07/02 09:06:59;;;;;;;2.88;1.92;;;19.50;99.90;;;;;;5055117;28;20047;-74
2022/07/02 09:09:26;;;;;;;2.65;0.65;;;18.50;99.90;;;;;;5055783;28;20083;-85
2022/07/02 09:11:52;;;;;;;3.75;0.70;;;18.60;99.90;;;;;;5091600;28;20043;-79
2022/07/02 09:14:18;;;;;;;4.60;0.65;;;19.50;99.90;;;;;;5067815;28;20056;-75
2022/07/02 09:16:44;;;;;;;3.55;0.52;;;18.70;99.90;;;;;;5088335;28;20048;-75
2022/07/02 09:19:10;;;;;;;1.75;0.52;;;18.70;99.90;;;;;;5073362;28;20036;-75
2022/07/02 09:21:50;;;;;;;6.47;0.52;;;18.80;99.90;;;;;;5063937;28;20043;-74
2022/07/02 09:24:30;;;;;;;3.28;0.60;;;19.60;99.90;;;;;;5069534;28;20079;-75
2022/07/02 09:27:04;;;;;;;1.92;0.40;;;18.90;99.90;;;;;;5084115;28;20105;-75
2022/07/02 09:30:00;;;;;;;3.80;0.50;;;19.00;99.90;;;;;;5072403;28;20067;-75
2022/07/02 09:32:25;;;;;;;1.58;0.40;;;19.30;99.90;;;;;;5053167;28;20528;-75
2022/07/02 09:34:52;;;;;;;4.50;1.17;;;19.40;99.90;;;;;;5072064;28;20040;-74
2022/07/02 09:37:23;;;;;;;3.05;0.73;;;19.20;99.90;;;;;;5072460;28;20083;-75
2022/07/02 09:39:50;;;;;;;2.03;0.13;;;19.30;99.90;;;;;;5052344;28;20032;-75
2022/07/02 09:42:30;;;;;;;2.60;0.55;;;19.30;99.90;;;;;;5056093;28;20126;-74
2022/07/02 09:44:57;;;;;;;0.68;0.25;;;19.40;99.90;;;;;;5068762;28;20397;-75
2022/07/02 09:47:37;;;;;;;1.38;0.20;;;19.90;99.90;;;;;;5056582;28;20144;-75
2022/07/02 09:50:10;;;;;;;1.15;0.30;;;19.40;99.90;;;;;;5089781;28;20402;-75
2022/07/02 09:52:45;;;;;;;2.03;0.40;;;19.50;99.90;;;;;;5055872;28;20405;-75
2022/07/02 09:55:20;;;;;;;4.72;0.20;;;19.60;99.90;;;;;;5068631;28;20089;-74
2022/07/02 09:57:56;;;;;;;1.38;0.30;;;19.60;99.90;;;;;;5071541;28;20058;-75
2022/07/02 10:00:24;;;;;;;1.95;0.40;;;19.70;99.90;;;;;;5090664;28;20028;-74
2022/07/02 10:02:54;;;;;;;0.95;0.40;;;19.70;99.90;;;;;;5080657;28;20075;-75
2022/07/02 10:05:26;;;;;;;1.52;0.20;;;19.80;99.90;;;;;;5090025;28;20039;-75
2022/07/02 10:07:54;;;;;;;1.25;0.20;;;19.90;99.90;;;;;;5063990;28;20072;-74
2022/07/02 10:10:35;;;;;;;6.15;0.30;;;20.00;99.90;;;;;;5072392;28;20411;-76
2022/07/02 10:13:02;;;;;;;2.85;0.75;;;20.00;99.90;;;;;;5065468;28;20055;-75
2022/07/02 10:15:42;;;;;;;1.67;0.30;;;20.30;99.90;;;;;;5055135;28;20050;-74
2022/07/02 10:18:11;;;;;;;2.65;0.63;;;20.00;99.90;;;;;;5065796;28;20044;-75
2022/07/02 10:20:37;;;;;;;2.47;0.30;;;20.10;99.90;;;;;;5069625;28;20036;-76
2022/07/02 10:23:04;;;;;;;2.10;0.20;;;20.20;99.90;;;;;;5089953;28;20101;-75
2022/07/02 10:25:32;;;;;;;1.05;0.60;;;20.20;99.90;;;;;;5071644;28;20044;-76
2022/07/02 10:27:58;;;;;;;9.20;6.40;;;20.30;99.90;;;;;;5046092;28;20483;-76
2022/07/02 10:30:31;;;;;;;1.17;0.38;;;20.30;99.90;;;;;;5071936;28;20539;-75
2022/07/02 10:33:20;;;;;;;3.20;0.25;;;20.40;99.90;;;;;;5051071;28;20059;-75
2022/07/02 10:35:47;;;;;;;1.08;0.20;;;20.40;99.80;;;;;;5070128;28;20543;-74
2022/07/02 10:38:13;;;;;;;2.63;0.50;;;20.40;98.60;;;;;;5071883;28;20105;-76
2022/07/02 10:40:49;;;;;;;1.27;0.40;;;20.40;99.40;;;;;;5051877;28;20142;-74
2022/07/02 10:43:17;;;;;;;2.33;0.20;;;21.20;99.90;;;;;;5068857;28;20068;-75
2022/07/02 10:45:42;;;;;;;2.22;0.40;;;20.50;99.90;;;;;;5053349;28;20047;-74
2022/07/02 10:48:10;;;;;;;4.32;0.50;;;20.50;99.10;;;;;;5071167;28;20040;-75
2022/07/02 10:50:37;;;;;;;1.15;0.30;;;20.50;99.60;;;;;;5089309;28;20500;-76
2022/07/02 10:53:22;;;;;;;1.10;0.40;;;21.30;99.90;;;;;;5088363;28;20622;-75
2022/07/02 10:55:50;;;;;;;1.08;0.32;;;20.50;99.10;;;;;;5070658;28;20083;-75
2022/07/02 10:58:23;;;;;;;1.80;0.20;;;20.50;98.90;;;;;;5071901;28;20067;-75
2022/07/02 11:00:50;;;;;;;3.35;0.40;;;20.60;99.00;;;;;;5066787;28;20040;-76
2022/07/02 11:03:26;;;;;;;1.58;0.30;;;21.50;98.00;;;;;;5065071;28;20207;-75
2022/07/02 11:06:06;;;;;;;1.20;0.40;;;20.80;98.90;;;;;;5054036;28;20404;-77
2022/07/02 11:08:43;;;;;;;1.60;0.50;;;20.90;98.00;;;;;;5070309;28;20691;-80
2022/07/02 11:11:10;;;;;;;0.63;0.17;;;21.00;97.80;;;;;;5083102;28;20040;-84
2022/07/02 11:13:55;;;;;;;1.17;0.10;;;21.30;96.00;;;;;;5054389;28;20051;-79
2022/07/02 11:16:27;;;;;;;3.42;0.30;;;21.00;96.00;;;;;;5070493;28;20036;-77
2022/07/02 11:18:54;;;;;;;5.75;0.50;;;20.90;96.10;;;;;;5053190;28;20047;-72
2022/07/02 11:21:22;;;;;;;2.22;0.47;;;20.90;96.60;;;;;;5088434;28;20115;-72
2022/07/02 11:23:48;;;;;;;2.30;0.30;;;20.90;96.50;;;;;;5075299;28;20307;-74
2022/07/02 11:26:25;;;;;;;2.47;0.40;;;20.90;97.00;;;;;;5070455;28;20440;-77
2022/07/02 11:28:52;;;;;;;0.75;0.20;;;20.80;97.20;;;;;;5068476;28;20044;-76
2022/07/02 11:31:19;;;;;;;30.75;1.40;;;20.90;97.00;;;;;;5089114;28;20531;-80
2022/07/02 11:33:55;;;;;;;4.20;0.40;;;21.00;96.90;;;;;;5087950;28;20418;-79
2022/07/02 11:36:22;;;;;;;2.53;0.20;;;21.00;97.00;;;;;;5064765;28;20127;-80
2022/07/02 11:38:50;;;;;;;5.35;0.30;;;21.00;96.50;;;;;;5087870;28;20115;-80
2022/07/02 11:41:26;;;;;;;1.13;0.13;;;21.10;97.50;;;;;;5068868;28;20083;-84
2022/07/02 11:43:57;;;;;;;6.10;0.43;;;21.30;94.50;;;;;;5070111;28;20094;-84
2022/07/02 11:46:27;;;;;;;2.33;0.28;;;21.40;93.20;;;;;;5067989;28;20032;-85
2022/07/02 11:48:55;;;;;;;1.60;0.20;;;21.20;93.00;;;;;;5053240;28;20071;-80
2022/07/02 11:51:24;;;;;;;0.50;0.28;;;21.50;93.00;;;;;;5070025;28;20040;-84
2022/07/02 11:54:02;;;;;;;4.95;0.32;;;21.50;92.40;;;;;;5053793;28;20040;-84
2022/07/02 11:56:29;;;;;;;5.68;0.40;;;21.40;93.60;;;;;;5083075;28;20089;-80
2022/07/02 11:58:55;;;;;;;36.60;2.17;;;21.70;94.50;;;;;;5050929;28;20135;-85
2022/07/02 12:01:25;;;;;;;2.65;0.40;;;21.30;94.90;;;;;;5069894;28;20063;-87
2022/07/02 12:03:56;;;;;;;0.60;0.13;;;21.30;94.50;;;;;;5085709;28;20036;-82
2022/07/02 12:06:26;;;;;;;9.38;0.47;;;21.40;93.20;;;;;;5068621;28;20391;-84
2022/07/02 12:08:56;;;;;;;12.95;1.35;;;21.30;94.20;;;;;;5051460;28;20071;-84
2022/07/02 12:11:23;;;;;;;2.65;0.43;;;21.30;94.60;;;;;;5050708;28;20115;-85
2022/07/02 12:13:51;;;;;;;2.10;0.30;;;21.30;94.00;;;;;;5068504;28;20032;-82
2022/07/02 12:16:23;;;;;;;2.08;0.20;;;21.30;93.60;;;;;;5067631;28;20044;-85
2022/07/02 12:19:04;;;;;;;3.28;0.40;;;21.20;93.20;;;;;;5068910;28;20119;-84
2022/07/02 12:21:37;;;;;;;6.28;0.40;;;21.30;93.80;;;;;;5067086;28;20074;-80
2022/07/02 12:24:16;;;;;;;30.30;1.33;;;21.30;93.70;;;;;;5069501;28;20465;-85
2022/07/02 12:26:44;;;;;;;6.25;0.28;;;21.20;93.40;;;;;;5083089;28;20052;-83
2022/07/02 12:32:13;;;;;;;0.85;0.10;;;21.20;93.90;;;;;;5082213;28;20557;-85
2022/07/02 12:34:47;;;;;;;4.32;0.30;;;21.10;93.80;;;;;;5085698;28;20054;-85
2022/07/02 12:37:30;;;;;;;1.13;0.65;;;21.20;94.10;;;;;;5080231;28;20040;-84
2022/07/02 12:40:07;;;;;;;5.82;1.38;;;21.20;93.80;;;;;;5066059;28;20048;-84
2022/07/02 12:42:47;;;;;;;1.42;0.30;;;21.20;94.00;;;;;;5070061;28;20067;-81
2022/07/02 12:45:31;;;;;;;76.05;2.65;;;21.30;94.00;;;;;;5062963;28;20032;-86
2022/07/02 12:48:11;;;;;;;2.53;0.10;;;21.50;94.60;;;;;;5053028;28;20056;-85
2022/07/02 12:50:41;;;;;;;0.75;0.10;;;21.80;93.40;;;;;;5070695;28;20047;-79
2022/07/02 12:53:10;;;;;;;9.68;0.63;;;21.80;92.40;;;;;;5043257;28;20040;-74
2022/07/02 12:55:42;;;;;;;4.03;0.30;;;21.70;93.00;;;;;;5069941;28;20177;-73
2022/07/02 12:58:11;;;;;;;6.72;0.25;;;21.70;93.50;;;;;;5069570;28;20032;-73
2022/07/02 13:00:43;;;;;;;4.22;0.32;;;21.70;93.50;;;;;;5052153;28;20682;-73
2022/07/02 13:03:13;;;;;;;6.50;0.55;;;21.70;93.50;;;;;;5051631;28;20769;-74